createdAt,value
2022-10-20T00:02:09.618Z,102183.97
2022-10-20T00:04:36.027Z,102180.19
2022-10-20T00:07:02.458Z,102180.25
2022-10-20T00:09:29.128Z,102181.72
2022-10-20T00:11:55.689Z,102175.72
2022-10-20T00:14:22.185Z,102167.78
2022-10-20T00:16:48.624Z,102164.63
2022-10-20T00:19:15.069Z,102165.69
2022-10-20T00:21:41.490Z,102165.63
2022-10-20T00:24:08.050Z,102163.38
2022-10-20T00:26:34.509Z,102161.88
2022-10-20T00:29:02.952Z,102164.16
2022-10-20T00:31:29.832Z,102158.91
2022-10-20T00:33:56.312Z,102157.00
2022-10-20T00:36:23.390Z,102147.47
2022-10-20T00:38:50.939Z,102148.97
2022-10-20T00:41:19.871Z,102158.84
2022-10-20T00:43:53.568Z,102142.72
2022-10-20T00:46:22.636Z,102135.16
2022-10-20T00:48:53.203Z,102132.16
2022-10-20T00:51:22.740Z,102125.69
2022-10-20T00:53:50.985Z,102125.72
2022-10-20T00:56:17.462Z,102122.22
2022-10-20T00:58:44.025Z,102117.41
2022-10-20T01:01:11.488Z,102119.97
2022-10-20T01:03:47.509Z,102100.19
2022-10-20T01:08:47.254Z,102100.88
2022-10-20T01:11:25.905Z,102097.16
2022-10-20T01:14:19.851Z,102099.00
2022-10-20T01:16:59.169Z,102087.94
2022-10-20T01:19:39.515Z,102089.94
2022-10-20T01:22:14.321Z,102084.59
2022-10-20T01:24:50.884Z,102075.41
2022-10-20T01:27:37.748Z,102072.75
2022-10-20T01:30:19.197Z,102074.19
2022-10-20T01:32:53.575Z,102081.00
2022-10-20T01:35:22.997Z,102070.69
2022-10-20T01:38:20.933Z,102072.53
2022-10-20T01:41:09.717Z,102056.56
2022-10-20T01:43:38.682Z,102064.97
2022-10-20T01:46:06.622Z,102058.81
2022-10-20T01:48:35.251Z,102069.38
2022-10-20T01:51:02.481Z,102066.31
2022-10-20T01:53:29.019Z,102056.72
2022-10-20T01:55:56.993Z,102061.34
2022-10-20T01:58:48.251Z,102050.31
2022-10-20T02:01:34.497Z,102044.91
2022-10-20T02:04:03.153Z,102048.34
2022-10-20T02:07:08.090Z,102047.94
2022-10-20T02:09:46.065Z,102047.16
2022-10-20T02:12:17.722Z,102036.94
2022-10-20T02:14:45.456Z,102018.13
2022-10-20T02:17:14.929Z,102027.31
2022-10-20T02:19:43.396Z,102019.28
2022-10-20T02:22:11.510Z,102012.81
2022-10-20T02:24:40.214Z,102010.56
2022-10-20T02:27:22.114Z,102000.72
2022-10-20T02:29:58.726Z,101996.16
2022-10-20T02:32:25.672Z,102006.06
2022-10-20T02:34:52.100Z,101995.34
2022-10-20T02:37:18.517Z,101998.47
2022-10-20T02:39:45.182Z,101992.69
2022-10-20T02:42:12.626Z,101998.47
2022-10-20T02:44:39.068Z,101993.91
2022-10-20T02:47:05.625Z,101988.47
2022-10-20T02:49:32.044Z,101977.00
2022-10-20T02:51:58.544Z,101980.47
2022-10-20T02:54:24.946Z,101978.50
2022-10-20T02:56:51.330Z,101986.59
2022-10-20T02:59:17.868Z,101979.66
2022-10-20T03:01:44.936Z,101982.31
2022-10-20T03:04:12.446Z,101986.16
2022-10-20T03:06:40.197Z,101979.97
2022-10-20T03:09:06.699Z,101976.59
2022-10-20T03:11:33.201Z,101979.97
2022-10-20T03:13:59.702Z,101963.16
2022-10-20T03:16:26.353Z,101964.72
2022-10-20T03:18:53.223Z,101960.66
2022-10-20T03:21:19.709Z,101952.31
2022-10-20T03:23:46.212Z,101941.72
2022-10-20T03:26:12.707Z,101952.59
2022-10-20T03:28:39.927Z,101949.59
2022-10-20T03:31:07.090Z,101956.03
2022-10-20T03:33:33.843Z,101955.34
2022-10-20T03:36:00.589Z,101934.06
2022-10-20T03:38:27.017Z,101937.94
2022-10-20T03:40:53.498Z,101933.41
2022-10-20T03:43:19.977Z,101919.28
2022-10-20T03:45:46.368Z,101913.06
2022-10-20T03:48:12.811Z,101915.44
2022-10-20T03:50:40.335Z,101907.91
2022-10-20T03:53:07.620Z,101905.69
2022-10-20T03:55:33.998Z,101898.91
2022-10-20T03:58:00.380Z,101894.28
2022-10-20T04:00:26.928Z,101892.81
2022-10-20T04:02:53.704Z,101882.84
2022-10-20T04:05:20.675Z,101891.22
2022-10-20T04:07:47.503Z,101881.31
2022-10-20T04:10:15.160Z,101887.44
2022-10-20T04:12:41.539Z,101877.53
2022-10-20T04:15:08.530Z,101868.31
2022-10-20T04:17:34.999Z,101868.53
2022-10-20T04:20:01.510Z,101866.22
2022-10-20T04:22:28.057Z,101869.34
2022-10-20T04:24:54.518Z,101856.34
2022-10-20T04:27:21.066Z,101847.06
2022-10-20T04:29:47.879Z,101848.59
2022-10-20T04:32:14.321Z,101848.22
2022-10-20T04:34:40.728Z,101837.59
2022-10-20T04:37:07.137Z,101825.78
2022-10-20T04:39:33.563Z,101815.94
2022-10-20T04:42:00.810Z,101819.03
2022-10-20T04:44:27.273Z,101801.56
2022-10-20T04:46:56.964Z,101808.34
2022-10-20T04:49:23.741Z,101805.38
2022-10-20T04:51:50.169Z,101812.72
2022-10-20T04:54:16.646Z,101813.75
2022-10-20T04:56:43.063Z,101810.75
2022-10-20T04:59:12.720Z,101809.97
2022-10-20T05:01:40.687Z,101803.16
2022-10-20T05:04:07.372Z,101797.91
2022-10-20T05:06:33.939Z,101792.63
2022-10-20T05:09:02.459Z,101790.31
2022-10-20T05:11:30.898Z,101786.72
2022-10-20T05:13:57.451Z,101795.50
2022-10-20T05:16:24.295Z,101785.69
2022-10-20T05:18:52.307Z,101770.53
2022-10-20T05:21:23.943Z,101766.66
2022-10-20T05:23:58.559Z,101760.56
2022-10-20T05:26:26.106Z,101766.63
2022-10-20T05:28:52.576Z,101764.34
2022-10-20T05:31:21.948Z,101757.84
2022-10-20T05:33:50.636Z,101755.16
2022-10-20T05:36:21.567Z,101758.22
2022-10-20T05:38:49.372Z,101757.34
2022-10-20T05:41:18.147Z,101755.09
2022-10-20T05:43:52.543Z,101754.75
2022-10-20T05:46:19.789Z,101752.81
2022-10-20T05:48:47.065Z,101749.00
2022-10-20T05:51:19.151Z,101747.44
2022-10-20T05:53:47.063Z,101747.44
2022-10-20T05:56:15.923Z,101750.53
2022-10-20T05:58:43.569Z,101750.06
2022-10-20T06:01:17.268Z,101748.63
2022-10-20T06:04:00.962Z,101747.59
2022-10-20T06:06:30.011Z,101754.41
2022-10-20T06:08:58.758Z,101745.28
2022-10-20T06:11:26.113Z,101747.28
2022-10-20T06:13:53.305Z,101763.63
2022-10-20T06:16:22.190Z,101748.03
2022-10-20T06:18:48.729Z,101749.63
2022-10-20T06:21:17.977Z,101756.44
2022-10-20T06:23:47.414Z,101747.28
2022-10-20T06:26:19.196Z,101753.78
2022-10-20T06:28:48.542Z,101753.00
2022-10-20T06:31:16.126Z,101743.22
2022-10-20T06:33:43.449Z,101740.25
2022-10-20T06:36:10.974Z,101741.78
2022-10-20T06:38:38.600Z,101736.91
2022-10-20T06:41:07.123Z,101725.97
2022-10-20T06:43:33.907Z,101728.94
2022-10-20T06:46:05.389Z,101719.09
2022-10-20T06:48:33.071Z,101719.97
2022-10-20T06:51:02.736Z,101710.50
2022-10-20T06:53:30.048Z,101726.09
2022-10-20T06:56:07.463Z,101722.72
2022-10-20T06:58:35.490Z,101710.22
2022-10-20T07:01:09.882Z,101722.41
2022-10-20T07:03:38.470Z,101716.69
2022-10-20T07:06:06.476Z,101720.91
2022-10-20T07:08:34.326Z,101711.84
2022-10-20T07:11:07.556Z,101701.97
2022-10-20T07:13:35.508Z,101706.94
2022-10-20T07:16:02.764Z,101700.50
2022-10-20T07:18:29.882Z,101693.63
2022-10-20T07:21:00.743Z,101690.56
2022-10-20T07:23:29.173Z,101686.03
2022-10-20T07:26:06.808Z,101679.16
2022-10-20T07:28:34.272Z,101670.41
2022-10-20T07:31:08.807Z,101676.09
2022-10-20T07:33:35.905Z,101659.75
2022-10-20T07:36:02.337Z,101648.66
2022-10-20T07:38:29.784Z,101648.63
2022-10-20T07:41:02.382Z,101656.97
2022-10-20T07:43:29.178Z,101662.69
2022-10-20T07:45:55.627Z,101667.63
2022-10-20T07:48:22.103Z,101656.63
2022-10-20T07:50:48.704Z,101648.63
2022-10-20T07:53:15.109Z,101642.09
2022-10-20T07:55:41.493Z,101641.69
2022-10-20T07:58:08.016Z,101652.69
2022-10-20T08:00:34.591Z,101649.28
2022-10-20T08:03:01.079Z,101648.81
2022-10-20T08:05:29.501Z,101630.47
2022-10-20T08:07:58.309Z,101643.13
2022-10-20T08:10:24.992Z,101643.88
2022-10-20T08:12:51.681Z,101646.03
2022-10-20T08:15:20.254Z,101646.72
2022-10-20T08:17:46.662Z,101640.72
2022-10-20T08:20:20.441Z,101636.00
2022-10-20T08:22:48.905Z,101636.13
2022-10-20T08:25:15.503Z,101645.06
2022-10-20T08:27:42.238Z,101642.88
2022-10-20T08:30:23.475Z,101644.94
2022-10-20T08:32:52.620Z,101641.75
2022-10-20T08:35:20.243Z,101646.41
2022-10-20T08:37:46.650Z,101627.41
2022-10-20T08:40:28.161Z,101616.97
2022-10-20T08:42:54.853Z,101634.22
2022-10-20T08:45:24.479Z,101618.91
2022-10-20T08:47:54.097Z,101616.66
2022-10-20T08:50:22.047Z,101610.81
2022-10-20T08:52:54.255Z,101602.44
2022-10-20T08:55:32.535Z,101602.81
2022-10-20T08:58:04.969Z,101608.00
2022-10-20T09:00:33.153Z,101603.16
2022-10-20T09:03:13.841Z,101607.19
2022-10-20T09:05:42.025Z,101592.69
2022-10-20T09:08:08.715Z,101592.97
2022-10-20T09:10:47.989Z,101604.69
2022-10-20T09:13:25.720Z,101599.44
2022-10-20T09:15:56.462Z,101596.47
2022-10-20T09:18:23.126Z,101601.84
2022-10-20T09:20:56.296Z,101589.56
2022-10-20T09:23:42.940Z,101582.50
2022-10-20T09:26:30.379Z,101574.88
2022-10-20T09:29:16.476Z,101556.34
2022-10-20T09:31:45.067Z,101559.69
2022-10-20T09:34:32.608Z,101575.03
2022-10-20T09:37:08.147Z,101562.38
2022-10-20T09:39:49.198Z,101557.44
2022-10-20T09:42:24.857Z,101553.63
2022-10-20T09:45:01.108Z,101544.25
2022-10-20T09:47:28.597Z,101541.16
2022-10-20T09:50:01.049Z,101546.88
2022-10-20T09:52:31.828Z,101533.41
2022-10-20T09:55:26.790Z,101531.13
2022-10-20T09:57:54.350Z,101519.06
2022-10-20T10:00:37.228Z,101512.34
2022-10-20T10:03:21.560Z,101513.66
2022-10-20T10:05:59.385Z,101519.03
2022-10-20T10:08:28.716Z,101525.41
2022-10-20T10:11:01.586Z,101526.28
2022-10-20T10:13:30.757Z,101526.69
2022-10-20T10:16:02.938Z,101512.38
2022-10-20T10:18:29.724Z,101512.72
2022-10-20T10:21:02.576Z,101500.59
2022-10-20T10:23:31.132Z,101517.94
2022-10-20T10:26:00.683Z,101506.19
2022-10-20T10:28:34.030Z,101505.28
2022-10-20T10:31:22.377Z,101499.41
2022-10-20T10:33:52.148Z,101490.91
2022-10-20T10:36:26.769Z,101493.56
2022-10-20T10:38:53.912Z,101480.81
2022-10-20T10:41:44.973Z,101465.59
2022-10-20T10:44:27.306Z,101460.03
2022-10-20T10:47:14.805Z,101458.66
2022-10-20T10:49:59.457Z,101465.34
2022-10-20T10:52:51.025Z,101448.50
2022-10-20T10:55:47.396Z,101453.91
2022-10-20T10:58:25.445Z,101436.53
2022-10-20T11:01:17.682Z,101422.00
2022-10-20T11:04:06.209Z,101417.28
2022-10-20T11:06:48.852Z,101400.22
2022-10-20T11:09:38.518Z,101404.03
2022-10-20T11:12:04.865Z,101409.13
2022-10-20T11:14:54.525Z,101411.56
2022-10-20T11:17:33.006Z,101404.03
2022-10-20T11:20:19.788Z,101395.47
2022-10-20T11:22:55.559Z,101382.41
2022-10-20T11:25:33.560Z,101375.91
2022-10-20T11:28:00.658Z,101360.97
2022-10-20T11:30:27.493Z,101377.28
2022-10-20T11:33:20.207Z,101388.81
2022-10-20T11:36:03.995Z,101389.41
2022-10-20T11:38:44.172Z,101375.66
2022-10-20T11:41:35.311Z,101340.97
2022-10-20T11:44:28.163Z,101359.13
2022-10-20T11:46:58.638Z,101360.06
2022-10-20T11:49:25.084Z,101351.13
2022-10-20T11:52:14.111Z,101355.72
2022-10-20T11:55:06.930Z,101354.09
2022-10-20T11:57:39.439Z,101351.28
2022-10-20T12:00:24.604Z,101352.84
2022-10-20T12:03:09.456Z,101345.66
2022-10-20T12:06:00.894Z,101350.19
2022-10-20T12:08:37.356Z,101343.16
2022-10-20T12:11:12.936Z,101329.47
2022-10-20T12:14:07.201Z,101315.44
2022-10-20T12:16:55.915Z,101306.00
2022-10-20T12:19:25.639Z,101303.31
2022-10-20T12:22:08.371Z,101294.78
2022-10-20T12:24:34.807Z,101301.38
2022-10-20T12:27:02.970Z,101301.50
2022-10-20T12:29:32.180Z,101298.28
2022-10-20T12:32:37.503Z,101295.69
2022-10-20T12:35:24.034Z,101294.19
2022-10-20T12:38:02.308Z,101290.97
2022-10-20T12:40:55.089Z,101297.53
2022-10-20T12:43:29.210Z,101300.09
2022-10-20T12:46:05.148Z,101301.22
2022-10-20T12:48:34.013Z,101292.38
2022-10-20T12:51:07.985Z,101283.47
2022-10-20T12:53:34.627Z,101295.00
2022-10-20T12:56:07.009Z,101301.03
2022-10-20T12:59:10.076Z,101294.25
2022-10-20T13:02:21.835Z,101289.78
2022-10-20T13:04:58.092Z,101282.53
2022-10-20T13:07:46.560Z,101278.84
2022-10-20T13:10:31.284Z,101278.84
2022-10-20T13:13:03.664Z,101279.34
2022-10-20T13:15:32.913Z,101281.47
2022-10-20T13:18:02.457Z,101296.00
2022-10-20T13:21:01.716Z,101285.34
2022-10-20T13:23:38.738Z,101276.97
2022-10-20T13:26:25.406Z,101283.53
2022-10-20T13:28:53.652Z,101285.59
2022-10-20T13:31:44.069Z,101283.47
2022-10-20T13:34:18.698Z,101279.81
2022-10-20T13:37:21.644Z,101276.50
2022-10-20T13:40:27.640Z,101288.84
2022-10-20T13:43:32.699Z,101278.84
2022-10-20T13:46:08.020Z,101282.16
2022-10-20T13:48:45.024Z,101273.56
2022-10-20T13:51:25.755Z,101266.06
2022-10-20T13:53:55.178Z,101260.03
2022-10-20T13:56:35.458Z,101257.44
2022-10-20T13:59:05.937Z,101260.66
2022-10-20T14:01:35.672Z,101255.97
2022-10-20T14:04:02.346Z,101251.91
2022-10-20T14:06:36.321Z,101249.22
2022-10-20T14:09:11.859Z,101246.75
2022-10-20T14:11:39.040Z,101247.16
2022-10-20T14:14:07.770Z,101245.56
2022-10-20T14:16:34.184Z,101253.09
2022-10-20T14:19:12.756Z,101256.41
2022-10-20T14:21:49.309Z,101258.78
2022-10-20T14:24:22.617Z,101259.78
2022-10-20T14:26:49.799Z,101258.38
2022-10-20T14:29:17.409Z,101240.69
2022-10-20T14:31:45.918Z,101257.03
2022-10-20T14:34:29.431Z,101253.09
2022-10-20T14:36:56.873Z,101250.19
2022-10-20T14:39:38.400Z,101259.22
2022-10-20T14:42:19.638Z,101242.56
2022-10-20T14:44:46.187Z,101238.34
2022-10-20T14:47:13.963Z,101245.84
2022-10-20T14:49:42.162Z,101243.91
2022-10-20T14:52:20.382Z,101239.59
2022-10-20T14:54:49.616Z,101238.34
2022-10-20T14:57:16.315Z,101247.88
2022-10-20T15:00:02.468Z,101247.47
2022-10-20T15:02:39.974Z,101249.59
2022-10-20T15:05:22.539Z,101243.50
2022-10-20T15:07:49.267Z,101234.16
2022-10-20T15:10:16.803Z,101232.34
2022-10-20T15:12:46.261Z,101244.28
2022-10-20T15:15:12.781Z,101239.66
2022-10-20T15:17:43.620Z,101239.03
2022-10-20T15:20:32.831Z,101238.78
2022-10-20T15:23:07.639Z,101240.22
2022-10-20T15:25:47.505Z,101245.91
2022-10-20T15:28:23.532Z,101227.84
2022-10-20T15:30:50.197Z,101235.38
2022-10-20T15:33:16.629Z,101237.41
2022-10-20T15:35:47.013Z,101236.00
2022-10-20T15:38:14.386Z,101230.84
2022-10-20T15:40:41.254Z,101224.41
2022-10-20T15:43:11.930Z,101205.16
2022-10-20T15:45:40.802Z,101199.78
2022-10-20T15:48:07.229Z,101191.22
2022-10-20T15:50:33.912Z,101192.97
2022-10-20T15:53:00.342Z,101193.59
2022-10-20T15:55:32.390Z,101182.66
2022-10-20T15:57:59.025Z,101182.66
2022-10-20T16:00:27.403Z,101170.72
2022-10-20T16:02:55.566Z,101175.00
2022-10-20T16:05:27.094Z,101180.88
2022-10-20T16:07:54.446Z,101169.53
2022-10-20T16:10:28.514Z,101169.94
2022-10-20T16:12:55.328Z,101158.44
2022-10-20T16:15:22.444Z,101161.03
2022-10-20T16:20:21.850Z,101156.97
2022-10-20T16:22:48.342Z,101162.19
2022-10-20T16:25:14.741Z,101155.91
2022-10-20T16:27:41.211Z,101149.97
2022-10-20T16:30:08.575Z,101148.91
2022-10-20T16:32:35.708Z,101150.84
2022-10-20T16:35:04.264Z,101155.09
2022-10-20T16:37:32.159Z,101156.19
2022-10-20T16:39:59.528Z,101159.72
2022-10-20T16:42:27.422Z,101150.06
2022-10-20T16:44:53.866Z,101152.09
2022-10-20T16:47:20.340Z,101154.59
2022-10-20T16:49:46.755Z,101154.59
2022-10-20T16:52:13.299Z,101149.25
2022-10-20T16:57:12.720Z,101139.56
2022-10-20T16:59:39.480Z,101119.66
2022-10-20T17:02:06.227Z,101108.94
2022-10-20T17:04:32.629Z,101109.31
2022-10-20T17:06:59.149Z,101125.00
2022-10-20T17:09:25.714Z,101104.50
2022-10-20T17:11:52.220Z,101087.78
2022-10-20T17:14:18.700Z,101065.22
2022-10-20T17:16:47.211Z,101089.38
2022-10-20T17:19:14.061Z,101105.56
2022-10-20T17:21:40.541Z,101097.00
2022-10-20T17:24:11.203Z,101099.50
2022-10-20T17:26:38.353Z,101093.97
2022-10-20T17:29:05.046Z,101109.31
2022-10-20T17:31:31.708Z,101102.38
2022-10-20T17:33:58.900Z,101106.31
2022-10-20T17:36:26.477Z,101108.25
2022-10-20T17:38:56.109Z,101106.06
2022-10-20T17:41:22.838Z,101093.03
2022-10-20T17:43:49.307Z,101090.19
2022-10-20T17:46:17.743Z,101100.31
2022-10-20T17:48:44.794Z,101102.88
2022-10-20T17:51:20.531Z,101106.31
2022-10-20T17:53:48.355Z,101086.16
2022-10-20T17:56:16.157Z,101082.31
2022-10-20T17:58:43.868Z,101102.56
2022-10-20T18:01:17.030Z,101080.81
2022-10-20T18:03:44.336Z,101068.66
2022-10-20T18:06:19.328Z,101078.97
2022-10-20T18:08:46.775Z,101094.41
2022-10-20T18:11:18.978Z,101112.00
2022-10-20T18:13:45.879Z,101098.59
2022-10-20T18:16:14.306Z,101101.75
2022-10-20T18:18:40.868Z,101095.47
2022-10-20T18:21:12.480Z,101111.44
2022-10-20T18:23:41.291Z,101084.72
2022-10-20T18:26:19.071Z,101079.72
2022-10-20T18:28:48.280Z,101075.06
2022-10-20T18:31:23.296Z,101078.91
2022-10-20T18:33:51.174Z,101072.56
2022-10-20T18:36:18.760Z,101076.56
2022-10-20T18:38:46.562Z,101078.25
2022-10-20T18:41:24.799Z,101070.88
2022-10-20T18:43:58.012Z,101073.72
2022-10-20T18:46:26.524Z,101061.28
2022-10-20T18:48:53.280Z,101058.00
2022-10-20T18:51:19.713Z,101056.91
2022-10-20T18:53:46.750Z,101038.38
2022-10-20T18:56:14.351Z,101026.44
2022-10-20T18:58:42.956Z,101034.72
2022-10-20T19:01:12.572Z,101031.50
2022-10-20T19:03:40.243Z,101033.88
2022-10-20T19:06:27.752Z,101039.59
2022-10-20T19:08:56.756Z,101042.59
2022-10-20T19:11:25.463Z,101035.63
2022-10-20T19:13:52.385Z,101047.13
2022-10-20T19:16:20.937Z,101050.66
2022-10-20T19:18:49.673Z,101045.38
2022-10-20T19:21:17.096Z,101044.09
2022-10-20T19:23:46.529Z,101036.16
2022-10-20T19:26:28.269Z,101045.69
2022-10-20T19:28:58.881Z,101036.56
2022-10-20T19:31:50.467Z,101032.63
2022-10-20T19:34:20.716Z,101025.00
2022-10-20T19:36:47.310Z,101027.59
2022-10-20T19:39:16.593Z,101028.72
2022-10-20T19:41:43.180Z,101021.78
2022-10-20T19:44:15.227Z,101026.28
2022-10-20T19:46:42.992Z,101024.38
2022-10-20T19:49:09.512Z,101015.13
2022-10-20T19:51:36.105Z,101025.97
2022-10-20T19:54:02.667Z,101019.97
2022-10-20T19:56:29.135Z,101010.97
2022-10-20T19:58:55.611Z,101008.41
2022-10-20T20:01:22.099Z,101009.97
2022-10-20T20:03:48.699Z,101011.91
2022-10-20T20:06:18.791Z,101011.16
2022-10-20T20:08:47.156Z,101007.06
2022-10-20T20:11:23.374Z,101001.00
2022-10-20T20:13:54.252Z,100995.31
2022-10-20T20:16:21.490Z,100998.94
2022-10-20T20:18:48.255Z,101001.63
2022-10-20T20:21:15.074Z,100992.13
2022-10-20T20:23:58.241Z,100992.44
2022-10-20T20:26:27.379Z,100985.78
2022-10-20T20:28:54.429Z,100990.59
2022-10-20T20:31:21.744Z,100986.16
2022-10-20T20:33:48.471Z,100982.19
2022-10-20T20:36:14.873Z,100988.50
2022-10-20T20:38:41.793Z,100984.63
2022-10-20T20:41:12.243Z,100979.69
2022-10-20T20:43:39.019Z,100983.47
2022-10-20T20:46:10.700Z,100974.00
2022-10-20T20:48:37.696Z,100980.00
2022-10-20T20:51:04.760Z,100976.22
2022-10-20T20:53:31.229Z,100961.00
2022-10-20T20:56:00.270Z,100978.88
2022-10-20T20:58:28.342Z,100977.88
2022-10-20T21:01:08.702Z,100969.16
2022-10-20T21:03:35.633Z,100967.75
2022-10-20T21:06:10.023Z,100981.34
2022-10-20T21:08:38.738Z,100973.16
2022-10-20T21:11:13.255Z,100983.13
2022-10-20T21:13:41.963Z,100976.47
2022-10-20T21:16:13.968Z,100990.28
2022-10-20T21:18:41.889Z,100987.16
2022-10-20T21:23:43.714Z,100972.91
2022-10-20T21:26:11.861Z,100969.25
2022-10-20T21:28:38.677Z,100971.50
2022-10-20T21:31:06.626Z,100964.41
2022-10-20T21:33:33.856Z,100983.78
2022-10-20T21:36:01.831Z,100974.44
2022-10-20T21:38:32.445Z,100968.00
2022-10-20T21:41:07.167Z,100961.22
2022-10-20T21:43:35.233Z,100960.22
2022-10-20T21:46:18.989Z,100969.09
2022-10-20T21:48:46.799Z,100962.06
2022-10-20T21:51:15.204Z,100968.56
2022-10-20T21:53:41.968Z,100961.13
2022-10-20T21:56:08.582Z,100951.03
2022-10-20T21:58:35.942Z,100966.25
2022-10-20T22:01:28.864Z,100971.25
2022-10-20T22:03:55.635Z,100962.31
2022-10-20T22:06:24.590Z,100958.38
2022-10-20T22:08:53.834Z,100968.25
2022-10-20T22:11:32.389Z,100967.41
2022-10-20T22:13:59.052Z,100973.84
2022-10-20T22:16:31.874Z,100970.09
2022-10-20T22:19:03.034Z,100970.84
2022-10-20T22:21:29.542Z,100984.59
2022-10-20T22:23:57.100Z,100980.44
2022-10-20T22:26:26.039Z,100980.88
2022-10-20T22:28:52.598Z,100967.81
2022-10-20T22:31:19.144Z,100974.59
2022-10-20T22:33:45.613Z,100977.59
2022-10-20T22:36:12.230Z,100970.41
2022-10-20T22:38:38.666Z,100971.44
2022-10-20T22:41:05.200Z,100983.19
2022-10-20T22:43:31.774Z,100985.28
2022-10-20T22:45:58.382Z,100969.41
2022-10-20T22:48:25.060Z,100963.53
2022-10-20T22:50:51.721Z,100965.06
2022-10-20T22:53:18.314Z,100961.22
2022-10-20T22:55:44.794Z,100963.38
2022-10-20T22:58:11.419Z,100956.38
2022-10-20T23:00:41.978Z,100965.06
2022-10-20T23:03:08.476Z,100959.19
2022-10-20T23:05:35.024Z,100960.59
2022-10-20T23:08:01.537Z,100974.94
2022-10-20T23:10:28.438Z,100966.91
2022-10-20T23:12:54.834Z,100966.63
2022-10-20T23:15:21.257Z,100953.69
2022-10-20T23:17:47.712Z,100966.34
2022-10-20T23:20:14.415Z,100967.00
2022-10-20T23:22:40.866Z,100961.81
2022-10-20T23:25:08.714Z,100973.06
2022-10-20T23:27:35.984Z,100958.81
2022-10-20T23:30:02.580Z,100960.44
2022-10-20T23:32:29.005Z,100953.25
2022-10-20T23:34:55.457Z,100941.63
2022-10-20T23:37:23.560Z,100960.75
2022-10-20T23:39:49.955Z,100945.56
2022-10-20T23:42:17.525Z,100954.56
2022-10-20T23:44:43.956Z,100947.00
2022-10-20T23:47:10.440Z,100952.66
2022-10-20T23:49:36.824Z,100940.91
2022-10-20T23:52:03.270Z,100935.19
2022-10-20T23:54:29.689Z,100940.16
2022-10-20T23:56:56.158Z,100929.25
2022-10-20T23:59:22.540Z,100933.59
